sensor_id;sensor_type;location;lat;lon;timestamp;temperature;humidity
7004;DHT22;3542;48.812;9.146;2023-02-28T00:02:15;-1.50;99.90
7004;DHT22;3542;48.812;9.146;2023-02-28T00:04:43;-1.50;99.90
7004;DHT22;3542;48.812;9.146;2023-02-28T00:07:08;-1.50;99.90
7004;DHT22;3542;48.812;9.146;2023-02-28T00:09:34;-1.50;99.90
7004;DHT22;3542;48.812;9.146;2023-02-28T00:11:59;-1.50;99.90
7004;DHT22;3542;48.812;9.146;2023-02-28T00:14:25;-1.50;99.90
7004;DHT22;3542;48.812;9.146;2023-02-28T00:16:50;-1.50;99.90
7004;DHT22;3542;48.812;9.146;2023-02-28T00:19:16;-1.50;99.90
7004;DHT22;3542;48.812;9.146;2023-02-28T00:21:41;-1.60;99.90
7004;DHT22;3542;48.812;9.146;2023-02-28T00:24:08;-1.60;99.90
7004;DHT22;3542;48.812;9.146;2023-02-28T00:26:33;-1.60;99.90
7004;DHT22;3542;48.812;9.146;2023-02-28T00:28:59;-1.70;99.90
7004;DHT22;3542;48.812;9.146;2023-02-28T00:31:24;-1.70;99.90
7004;DHT22;3542;48.812;9.146;2023-02-28T00:33:50;-1.70;99.90
7004;DHT22;3542;48.812;9.146;2023-02-28T00:36:16;-1.70;99.90
7004;DHT22;3542;48.812;9.146;2023-02-28T00:38:42;-1.70;99.90
7004;DHT22;3542;48.812;9.146;2023-02-28T00:41:08;-1.70;99.90
7004;DHT22;3542;48.812;9.146;2023-02-28T00:43:35;-1.70;99.90
7004;DHT22;3542;48.812;9.146;2023-02-28T00:46:01;-1.70;99.90
7004;DHT22;3542;48.812;9.146;2023-02-28T00:48:28;-1.80;99.90
7004;DHT22;3542;48.812;9.146;2023-02-28T00:50:53;-1.80;99.90
7004;DHT22;3542;48.812;9.146;2023-02-28T00:53:19;-1.80;99.90
7004;DHT22;3542;48.812;9.146;2023-02-28T00:55:44;-1.80;99.90
7004;DHT22;3542;48.812;9.146;2023-02-28T00:58:10;-1.80;99.90
7004;DHT22;3542;48.812;9.146;2023-02-28T01:00:35;-1.80;99.90
7004;DHT22;3542;48.812;9.146;2023-02-28T01:03:01;-1.80;99.90
7004;DHT22;3542;48.812;9.146;2023-02-28T01:05:26;-1.80;99.90
7004;DHT22;3542;48.812;9.146;2023-02-28T01:07:52;-1.80;99.90
7004;DHT22;3542;48.812;9.146;2023-02-28T01:10:17;-1.80;99.90
7004;DHT22;3542;48.812;9.146;2023-02-28T01:12:43;-1.80;99.90
7004;DHT22;3542;48.812;9.146;2023-02-28T01:15:10;-1.80;99.90
7004;DHT22;3542;48.812;9.146;2023-02-28T01:17:36;-1.80;99.90
7004;DHT22;3542;48.812;9.146;2023-02-28T01:20:02;-1.80;99.90
7004;DHT22;3542;48.812;9.146;2023-02-28T01:22:28;-1.80;99.90
7004;DHT22;3542;48.812;9.146;2023-02-28T01:24:53;-1.80;99.90
7004;DHT22;3542;48.812;9.146;2023-02-28T01:27:19;-1.90;99.90
7004;DHT22;3542;48.812;9.146;2023-02-28T01:29:45;-1.90;99.90
7004;DHT22;3542;48.812;9.146;2023-02-28T01:32:10;-1.90;99.90
7004;DHT22;3542;48.812;9.146;2023-02-28T01:34:36;-1.80;99.90
7004;DHT22;3542;48.812;9.146;2023-02-28T01:37:01;-1.80;99.90
7004;DHT22;3542;48.812;9.146;2023-02-28T01:39:28;-1.90;99.90
7004;DHT22;3542;48.812;9.146;2023-02-28T01:41:54;-1.80;99.90
7004;DHT22;3542;48.812;9.146;2023-02-28T01:47:26;-1.80;99.90
7004;DHT22;3542;48.812;9.146;2023-02-28T01:49:52;-1.80;99.90
7004;DHT22;3542;48.812;9.146;2023-02-28T01:52:18;-1.80;99.90
7004;DHT22;3542;48.812;9.146;2023-02-28T01:54:52;-1.80;99.90
7004;DHT22;3542;48.812;9.146;2023-02-28T01:57:23;-1.80;99.90
7004;DHT22;3542;48.812;9.146;2023-02-28T01:59:59;-1.90;99.90
7004;DHT22;3542;48.812;9.146;2023-02-28T03:33:00;-1.40;99.90
7004;DHT22;3542;48.812;9.146;2023-02-28T03:35:37;-1.40;99.90
7004;DHT22;3542;48.812;9.146;2023-02-28T03:38:14;-1.40;99.90
7004;DHT22;3542;48.812;9.146;2023-02-28T03:40:47;-1.40;99.90
7004;DHT22;3542;48.812;9.146;2023-02-28T03:43:18;-1.40;99.90
7004;DHT22;3542;48.812;9.146;2023-02-28T03:45:46;-1.40;99.90
7004;DHT22;3542;48.812;9.146;2023-02-28T03:48:18;-1.30;99.90
7004;DHT22;3542;48.812;9.146;2023-02-28T03:50:51;-1.40;99.90
7004;DHT22;3542;48.812;9.146;2023-02-28T03:53:27;-1.40;99.90
7004;DHT22;3542;48.812;9.146;2023-02-28T03:55:58;-1.40;99.90
7004;DHT22;3542;48.812;9.146;2023-02-28T03:58:39;-1.30;99.90
7004;DHT22;3542;48.812;9.146;2023-02-28T04:01:26;-1.30;99.90
7004;DHT22;3542;48.812;9.146;2023-02-28T04:03:53;-1.30;99.90
7004;DHT22;3542;48.812;9.146;2023-02-28T04:06:20;-1.30;99.90
7004;DHT22;3542;48.812;9.146;2023-02-28T04:08:47;-1.30;99.90
7004;DHT22;3542;48.812;9.146;2023-02-28T04:11:36;-1.30;99.90
7004;DHT22;3542;48.812;9.146;2023-02-28T04:14:03;-1.30;99.90
7004;DHT22;3542;48.812;9.146;2023-02-28T04:16:29;-1.30;99.90
7004;DHT22;3542;48.812;9.146;2023-02-28T04:18:55;-1.20;99.90
7004;DHT22;3542;48.812;9.146;2023-02-28T04:21:28;-1.20;99.90
7004;DHT22;3542;48.812;9.146;2023-02-28T04:23:54;-1.20;99.90
7004;DHT22;3542;48.812;9.146;2023-02-28T04:26:19;-1.20;99.90
7004;DHT22;3542;48.812;9.146;2023-02-28T04:28:45;-1.20;99.90
7004;DHT22;3542;48.812;9.146;2023-02-28T04:31:10;-1.10;99.90
7004;DHT22;3542;48.812;9.146;2023-02-28T04:33:36;-1.10;99.90
7004;DHT22;3542;48.812;9.146;2023-02-28T04:36:07;-1.10;99.90
7004;DHT22;3542;48.812;9.146;2023-02-28T04:38:35;-1.10;99.90
7004;DHT22;3542;48.812;9.146;2023-02-28T04:41:01;-1.00;99.90
7004;DHT22;3542;48.812;9.146;2023-02-28T04:43:27;-1.00;99.90
7004;DHT22;3542;48.812;9.146;2023-02-28T04:45:54;-1.00;99.90
7004;DHT22;3542;48.812;9.146;2023-02-28T04:48:23;-0.90;99.90
7004;DHT22;3542;48.812;9.146;2023-02-28T04:50:49;-0.90;99.90
7004;DHT22;3542;48.812;9.146;2023-02-28T04:53:14;-0.90;99.90
7004;DHT22;3542;48.812;9.146;2023-02-28T04:55:39;-0.90;99.90
7004;DHT22;3542;48.812;9.146;2023-02-28T04:58:05;-1.00;99.90
7004;DHT22;3542;48.812;9.146;2023-02-28T05:00:31;-0.90;99.90
7004;DHT22;3542;48.812;9.146;2023-02-28T05:02:56;-0.90;99.90
7004;DHT22;3542;48.812;9.146;2023-02-28T05:05:22;-0.90;99.90
7004;DHT22;3542;48.812;9.146;2023-02-28T05:07:47;-0.90;99.90
7004;DHT22;3542;48.812;9.146;2023-02-28T05:10:13;-0.90;99.90
7004;DHT22;3542;48.812;9.146;2023-02-28T05:12:39;-0.90;99.90
7004;DHT22;3542;48.812;9.146;2023-02-28T05:15:05;-0.80;99.90
7004;DHT22;3542;48.812;9.146;2023-02-28T05:17:31;-0.80;99.90
7004;DHT22;3542;48.812;9.146;2023-02-28T05:19:56;-0.90;99.90
7004;DHT22;3542;48.812;9.146;2023-02-28T05:22:22;-0.90;99.90
7004;DHT22;3542;48.812;9.146;2023-02-28T05:24:48;-0.90;99.90
7004;DHT22;3542;48.812;9.146;2023-02-28T05:27:13;-0.90;99.90
7004;DHT22;3542;48.812;9.146;2023-02-28T05:29:39;-0.80;99.90
7004;DHT22;3542;48.812;9.146;2023-02-28T05:32:09;-0.80;99.90
7004;DHT22;3542;48.812;9.146;2023-02-28T05:34:36;-0.80;99.90
7004;DHT22;3542;48.812;9.146;2023-02-28T05:37:02;-0.80;99.90
7004;DHT22;3542;48.812;9.146;2023-02-28T05:39:27;-0.90;99.90
7004;DHT22;3542;48.812;9.146;2023-02-28T05:41:53;-0.90;99.90
7004;DHT22;3542;48.812;9.146;2023-02-28T05:44:18;-0.80;99.90
7004;DHT22;3542;48.812;9.146;2023-02-28T05:46:44;-0.80;99.90
7004;DHT22;3542;48.812;9.146;2023-02-28T05:49:09;-0.80;99.90
7004;DHT22;3542;48.812;9.146;2023-02-28T05:51:35;-0.80;99.90
7004;DHT22;3542;48.812;9.146;2023-02-28T05:54:01;-0.70;99.90
7004;DHT22;3542;48.812;9.146;2023-02-28T05:56:27;-0.70;99.90
7004;DHT22;3542;48.812;9.146;2023-02-28T05:58:53;-0.70;99.90
7004;DHT22;3542;48.812;9.146;2023-02-28T06:01:35;-0.70;99.90
7004;DHT22;3542;48.812;9.146;2023-02-28T06:04:03;-0.60;99.90
7004;DHT22;3542;48.812;9.146;2023-02-28T06:06:29;-0.60;99.90
7004;DHT22;3542;48.812;9.146;2023-02-28T06:08:55;-0.60;99.90
7004;DHT22;3542;48.812;9.146;2023-02-28T06:11:22;-0.60;99.90
7004;DHT22;3542;48.812;9.146;2023-02-28T06:13:53;-0.60;99.90
7004;DHT22;3542;48.812;9.146;2023-02-28T06:16:19;-0.60;99.90
7004;DHT22;3542;48.812;9.146;2023-02-28T06:18:45;-0.60;99.90
7004;DHT22;3542;48.812;9.146;2023-02-28T06:21:12;-0.60;99.90
7004;DHT22;3542;48.812;9.146;2023-02-28T06:23:37;-0.60;99.90
7004;DHT22;3542;48.812;9.146;2023-02-28T06:26:03;-0.60;99.90
7004;DHT22;3542;48.812;9.146;2023-02-28T06:28:29;-0.60;99.90
7004;DHT22;3542;48.812;9.146;2023-02-28T06:30:54;-0.60;99.90
7004;DHT22;3542;48.812;9.146;2023-02-28T06:33:20;-0.60;99.90
7004;DHT22;3542;48.812;9.146;2023-02-28T06:35:52;-0.50;99.90
7004;DHT22;3542;48.812;9.146;2023-02-28T06:38:18;-0.50;99.90
7004;DHT22;3542;48.812;9.146;2023-02-28T06:40:44;-0.50;99.90
7004;DHT22;3542;48.812;9.146;2023-02-28T06:43:10;-0.50;99.90
7004;DHT22;3542;48.812;9.146;2023-02-28T06:45:45;-0.40;99.90
7004;DHT22;3542;48.812;9.146;2023-02-28T06:48:10;-0.40;99.90
7004;DHT22;3542;48.812;9.146;2023-02-28T06:50:36;-0.40;99.90
7004;DHT22;3542;48.812;9.146;2023-02-28T06:53:02;-0.40;99.90
7004;DHT22;3542;48.812;9.146;2023-02-28T06:55:27;-0.30;99.90
7004;DHT22;3542;48.812;9.146;2023-02-28T06:57:53;-0.30;99.90
7004;DHT22;3542;48.812;9.146;2023-02-28T07:00:20;-0.30;99.90
7004;DHT22;3542;48.812;9.146;2023-02-28T07:02:46;-0.30;99.90
7004;DHT22;3542;48.812;9.146;2023-02-28T07:05:12;-0.30;99.90
7004;DHT22;3542;48.812;9.146;2023-02-28T07:07:38;-0.20;99.90
7004;DHT22;3542;48.812;9.146;2023-02-28T07:10:06;-0.30;99.90
7004;DHT22;3542;48.812;9.146;2023-02-28T07:12:31;-0.30;99.90
7004;DHT22;3542;48.812;9.146;2023-02-28T07:14:57;-0.30;99.90
7004;DHT22;3542;48.812;9.146;2023-02-28T07:17:22;-0.20;99.90
7004;DHT22;3542;48.812;9.146;2023-02-28T07:19:48;-0.20;99.90
7004;DHT22;3542;48.812;9.146;2023-02-28T07:22:13;-0.20;99.90
7004;DHT22;3542;48.812;9.146;2023-02-28T07:24:39;-0.20;99.90
7004;DHT22;3542;48.812;9.146;2023-02-28T07:27:04;-0.20;99.90
7004;DHT22;3542;48.812;9.146;2023-02-28T07:29:30;-0.10;99.90
7004;DHT22;3542;48.812;9.146;2023-02-28T07:31:56;-0.10;99.90
7004;DHT22;3542;48.812;9.146;2023-02-28T07:34:22;-0.10;99.90
7004;DHT22;3542;48.812;9.146;2023-02-28T07:36:48;-0.10;99.90
7004;DHT22;3542;48.812;9.146;2023-02-28T07:39:13;0.00;99.90
7004;DHT22;3542;48.812;9.146;2023-02-28T07:41:39;0.00;99.90
7004;DHT22;3542;48.812;9.146;2023-02-28T07:44:09;0.00;99.90
7004;DHT22;3542;48.812;9.146;2023-02-28T07:46:36;0.00;99.90
7004;DHT22;3542;48.812;9.146;2023-02-28T07:49:01;0.00;99.90
7004;DHT22;3542;48.812;9.146;2023-02-28T07:51:29;0.00;99.90
7004;DHT22;3542;48.812;9.146;2023-02-28T07:53:54;0.10;99.90
7004;DHT22;3542;48.812;9.146;2023-02-28T07:56:20;0.10;99.90
7004;DHT22;3542;48.812;9.146;2023-02-28T07:58:45;0.10;99.90
7004;DHT22;3542;48.812;9.146;2023-02-28T08:01:11;0.10;99.90
7004;DHT22;3542;48.812;9.146;2023-02-28T08:03:38;0.10;99.90
7004;DHT22;3542;48.812;9.146;2023-02-28T08:06:04;0.10;99.90
7004;DHT22;3542;48.812;9.146;2023-02-28T08:08:30;0.10;99.90
7004;DHT22;3542;48.812;9.146;2023-02-28T08:10:58;0.10;99.90
7004;DHT22;3542;48.812;9.146;2023-02-28T08:13:25;0.10;99.90
7004;DHT22;3542;48.812;9.146;2023-02-28T08:15:53;0.10;99.90
7004;DHT22;3542;48.812;9.146;2023-02-28T08:18:19;0.20;99.90
7004;DHT22;3542;48.812;9.146;2023-02-28T08:20:46;0.20;99.90
7004;DHT22;3542;48.812;9.146;2023-02-28T08:23:12;0.30;99.90
7004;DHT22;3542;48.812;9.146;2023-02-28T08:25:38;0.40;99.90
7004;DHT22;3542;48.812;9.146;2023-02-28T08:28:03;0.40;99.90
7004;DHT22;3542;48.812;9.146;2023-02-28T08:30:29;0.40;99.90
7004;DHT22;3542;48.812;9.146;2023-02-28T08:32:54;0.40;99.90
7004;DHT22;3542;48.812;9.146;2023-02-28T08:35:21;0.50;99.90
7004;DHT22;3542;48.812;9.146;2023-02-28T08:37:49;0.50;99.90
7004;DHT22;3542;48.812;9.146;2023-02-28T08:40:16;0.60;99.90
7004;DHT22;3542;48.812;9.146;2023-02-28T08:42:47;0.50;99.90
7004;DHT22;3542;48.812;9.146;2023-02-28T08:45:14;0.50;99.90
7004;DHT22;3542;48.812;9.146;2023-02-28T08:47:40;0.60;99.90
7004;DHT22;3542;48.812;9.146;2023-02-28T08:50:06;0.60;99.90
7004;DHT22;3542;48.812;9.146;2023-02-28T08:52:32;0.60;99.90
7004;DHT22;3542;48.812;9.146;2023-02-28T08:54:57;0.60;99.90
7004;DHT22;3542;48.812;9.146;2023-02-28T08:57:23;0.60;99.90
7004;DHT22;3542;48.812;9.146;2023-02-28T08:59:51;0.70;99.90
7004;DHT22;3542;48.812;9.146;2023-02-28T09:02:16;0.70;99.90
7004;DHT22;3542;48.812;9.146;2023-02-28T09:04:42;0.80;99.90
7004;DHT22;3542;48.812;9.146;2023-02-28T09:07:07;0.90;99.90
7004;DHT22;3542;48.812;9.146;2023-02-28T09:09:33;0.80;99.90
7004;DHT22;3542;48.812;9.146;2023-02-28T09:11:59;0.80;99.90
7004;DHT22;3542;48.812;9.146;2023-02-28T09:14:24;0.90;99.90
7004;DHT22;3542;48.812;9.146;2023-02-28T09:16:50;0.90;99.90
7004;DHT22;3542;48.812;9.146;2023-02-28T09:19:15;1.00;99.90
7004;DHT22;3542;48.812;9.146;2023-02-28T09:21:41;1.10;99.90
7004;DHT22;3542;48.812;9.146;2023-02-28T09:24:07;1.20;99.90
7004;DHT22;3542;48.812;9.146;2023-02-28T09:26:33;1.20;99.90
7004;DHT22;3542;48.812;9.146;2023-02-28T09:28:59;1.20;99.90
7004;DHT22;3542;48.812;9.146;2023-02-28T09:31:27;1.20;99.90
7004;DHT22;3542;48.812;9.146;2023-02-28T09:33:56;1.40;99.90
7004;DHT22;3542;48.812;9.146;2023-02-28T09:36:23;1.50;99.90
7004;DHT22;3542;48.812;9.146;2023-02-28T09:38:49;1.60;99.90
7004;DHT22;3542;48.812;9.146;2023-02-28T09:41:25;1.60;99.90
7004;DHT22;3542;48.812;9.146;2023-02-28T09:43:56;1.70;99.90
7004;DHT22;3542;48.812;9.146;2023-02-28T09:46:34;1.70;99.90
7004;DHT22;3542;48.812;9.146;2023-02-28T09:49:07;1.50;99.90
7004;DHT22;3542;48.812;9.146;2023-02-28T09:51:49;1.50;99.90
7004;DHT22;3542;48.812;9.146;2023-02-28T09:54:19;1.50;99.90
7004;DHT22;3542;48.812;9.146;2023-02-28T09:59:53;1.40;99.90
7004;DHT22;3542;48.812;9.146;2023-02-28T10:05:50;1.40;99.90
7004;DHT22;3542;48.812;9.146;2023-02-28T10:08:33;1.50;99.90
7004;DHT22;3542;48.812;9.146;2023-02-28T10:11:03;1.60;99.90
7004;DHT22;3542;48.812;9.146;2023-02-28T10:16:05;1.70;99.90
7004;DHT22;3542;48.812;9.146;2023-02-28T10:18:52;1.90;99.90
7004;DHT22;3542;48.812;9.146;2023-02-28T10:21:35;2.10;99.90
7004;DHT22;3542;48.812;9.146;2023-02-28T10:24:05;2.40;99.90
7004;DHT22;3542;48.812;9.146;2023-02-28T10:26:36;2.50;99.90
7004;DHT22;3542;48.812;9.146;2023-02-28T10:29:02;2.40;99.90
7004;DHT22;3542;48.812;9.146;2023-02-28T10:31:28;2.20;99.90
7004;DHT22;3542;48.812;9.146;2023-02-28T10:33:55;2.40;99.90
7004;DHT22;3542;48.812;9.146;2023-02-28T10:36:21;2.50;99.90
7004;DHT22;3542;48.812;9.146;2023-02-28T10:38:48;2.50;99.90
7004;DHT22;3542;48.812;9.146;2023-02-28T10:41:17;2.60;99.90
7004;DHT22;3542;48.812;9.146;2023-02-28T10:43:51;2.80;99.90
7004;DHT22;3542;48.812;9.146;2023-02-28T10:46:19;3.20;99.90
7004;DHT22;3542;48.812;9.146;2023-02-28T10:49:04;3.20;99.90
7004;DHT22;3542;48.812;9.146;2023-02-28T10:51:39;3.20;99.90
7004;DHT22;3542;48.812;9.146;2023-02-28T10:54:04;3.40;99.90
7004;DHT22;3542;48.812;9.146;2023-02-28T10:56:31;3.40;99.90
7004;DHT22;3542;48.812;9.146;2023-02-28T10:59:02;3.60;99.90
7004;DHT22;3542;48.812;9.146;2023-02-28T11:01:41;3.70;99.90
7004;DHT22;3542;48.812;9.146;2023-02-28T11:04:18;3.80;99.90
7004;DHT22;3542;48.812;9.146;2023-02-28T11:06:45;3.80;99.90
7004;DHT22;3542;48.812;9.146;2023-02-28T11:09:35;3.90;99.90
7004;DHT22;3542;48.812;9.146;2023-02-28T11:12:17;4.60;99.90
7004;DHT22;3542;48.812;9.146;2023-02-28T11:14:49;5.40;99.90
7004;DHT22;3542;48.812;9.146;2023-02-28T11:17:20;5.70;99.90
7004;DHT22;3542;48.812;9.146;2023-02-28T11:19:50;6.00;99.90
7004;DHT22;3542;48.812;9.146;2023-02-28T11:22:19;6.00;99.90
7004;DHT22;3542;48.812;9.146;2023-02-28T11:24:49;5.90;99.90
7004;DHT22;3542;48.812;9.146;2023-02-28T11:29:57;6.30;99.90
7004;DHT22;3542;48.812;9.146;2023-02-28T11:32:24;6.30;99.90
7004;DHT22;3542;48.812;9.146;2023-02-28T11:35:18;6.40;99.90
7004;DHT22;3542;48.812;9.146;2023-02-28T11:37:47;6.80;99.90
7004;DHT22;3542;48.812;9.146;2023-02-28T11:40:18;7.30;99.90
7004;DHT22;3542;48.812;9.146;2023-02-28T11:43:00;7.50;99.90
7004;DHT22;3542;48.812;9.146;2023-02-28T11:48:16;7.10;99.90
7004;DHT22;3542;48.812;9.146;2023-02-28T11:56:49;6.80;99.90
7004;DHT22;3542;48.812;9.146;2023-02-28T12:07:25;6.50;99.90
7004;DHT22;3542;48.812;9.146;2023-02-28T12:10:15;6.70;99.90
7004;DHT22;3542;48.812;9.146;2023-02-28T12:18:48;6.50;99.90
7004;DHT22;3542;48.812;9.146;2023-02-28T12:24:45;6.20;99.90
7004;DHT22;3542;48.812;9.146;2023-02-28T12:27:17;6.30;99.90
7004;DHT22;3542;48.812;9.146;2023-02-28T12:29:52;6.20;99.90
7004;DHT22;3542;48.812;9.146;2023-02-28T12:32:39;6.20;99.90
7004;DHT22;3542;48.812;9.146;2023-02-28T12:37:41;6.30;99.90
7004;DHT22;3542;48.812;9.146;2023-02-28T12:40:14;6.40;99.90
7004;DHT22;3542;48.812;9.146;2023-02-28T12:42:52;6.20;99.90
7004;DHT22;3542;48.812;9.146;2023-02-28T12:45:26;6.00;99.90
7004;DHT22;3542;48.812;9.146;2023-02-28T12:47:58;6.20;99.90
7004;DHT22;3542;48.812;9.146;2023-02-28T12:50:26;6.40;99.90
7004;DHT22;3542;48.812;9.146;2023-02-28T12:55:56;6.40;99.90
7004;DHT22;3542;48.812;9.146;2023-02-28T12:58:33;6.50;99.90
7004;DHT22;3542;48.812;9.146;2023-02-28T13:01:22;6.70;99.90
7004;DHT22;3542;48.812;9.146;2023-02-28T13:04:14;6.60;99.90
7004;DHT22;3542;48.812;9.146;2023-02-28T13:07:04;6.40;99.90
7004;DHT22;3542;48.812;9.146;2023-02-28T13:09:33;6.40;99.90
7004;DHT22;3542;48.812;9.146;2023-02-28T13:11:59;6.20;99.90
7004;DHT22;3542;48.812;9.146;2023-02-28T13:17:09;6.50;99.90
7004;DHT22;3542;48.812;9.146;2023-02-28T13:24:55;6.20;99.90
7004;DHT22;3542;48.812;9.146;2023-02-28T13:27:34;5.90;99.90
7004;DHT22;3542;48.812;9.146;2023-02-28T13:30:00;5.90;99.90
7004;DHT22;3542;48.812;9.146;2023-02-28T13:32:32;6.10;99.90
7004;DHT22;3542;48.812;9.146;2023-02-28T13:39:57;6.10;99.90
7004;DHT22;3542;48.812;9.146;2023-02-28T13:50:34;6.30;99.90
7004;DHT22;3542;48.812;9.146;2023-02-28T14:04:37;6.20;99.90
7004;DHT22;3542;48.812;9.146;2023-02-28T14:07:05;6.10;99.90
7004;DHT22;3542;48.812;9.146;2023-02-28T14:09:40;6.10;99.90
7004;DHT22;3542;48.812;9.146;2023-02-28T14:18:00;6.20;99.90
7004;DHT22;3542;48.812;9.146;2023-02-28T14:20:30;6.30;99.90
7004;DHT22;3542;48.812;9.146;2023-02-28T14:23:18;6.30;99.90
7004;DHT22;3542;48.812;9.146;2023-02-28T14:26:13;6.20;99.90
7004;DHT22;3542;48.812;9.146;2023-02-28T14:31:33;6.20;99.90
7004;DHT22;3542;48.812;9.146;2023-02-28T14:36:49;6.30;99.90
7004;DHT22;3542;48.812;9.146;2023-02-28T14:39:21;6.20;99.90
7004;DHT22;3542;48.812;9.146;2023-02-28T14:41:47;6.30;99.90
7004;DHT22;3542;48.812;9.146;2023-02-28T14:44:22;6.20;99.90
7004;DHT22;3542;48.812;9.146;2023-02-28T14:46:50;6.20;99.90
7004;DHT22;3542;48.812;9.146;2023-02-28T14:49:27;6.20;99.90
7004;DHT22;3542;48.812;9.146;2023-02-28T14:52:21;6.20;99.90
7004;DHT22;3542;48.812;9.146;2023-02-28T14:57:31;6.20;99.90
7004;DHT22;3542;48.812;9.146;2023-02-28T15:02:49;6.30;99.90
7004;DHT22;3542;48.812;9.146;2023-02-28T15:07:44;6.20;99.90
7004;DHT22;3542;48.812;9.146;2023-02-28T15:10:23;6.10;99.90
7004;DHT22;3542;48.812;9.146;2023-02-28T15:12:58;6.10;99.90
7004;DHT22;3542;48.812;9.146;2023-02-28T15:15:47;6.00;99.90
7004;DHT22;3542;48.812;9.146;2023-02-28T15:18:55;6.00;99.90
7004;DHT22;3542;48.812;9.146;2023-02-28T15:21:24;6.00;99.90
7004;DHT22;3542;48.812;9.146;2023-02-28T15:24:02;5.90;99.90
7004;DHT22;3542;48.812;9.146;2023-02-28T15:26:36;5.90;99.90
7004;DHT22;3542;48.812;9.146;2023-02-28T15:29:12;5.80;99.90
7004;DHT22;3542;48.812;9.146;2023-02-28T15:31:51;5.80;99.90
7004;DHT22;3542;48.812;9.146;2023-02-28T15:34:41;5.80;99.90
7004;DHT22;3542;48.812;9.146;2023-02-28T15:39:51;5.80;99.90
7004;DHT22;3542;48.812;9.146;2023-02-28T15:42:22;5.80;99.90
7004;DHT22;3542;48.812;9.146;2023-02-28T15:44:48;5.80;99.90
7004;DHT22;3542;48.812;9.146;2023-02-28T15:47:26;5.80;99.90
7004;DHT22;3542;48.812;9.146;2023-02-28T15:50:00;5.70;99.90
7004;DHT22;3542;48.812;9.146;2023-02-28T15:52:33;5.70;99.90
7004;DHT22;3542;48.812;9.146;2023-02-28T15:55:09;5.70;99.90
7004;DHT22;3542;48.812;9.146;2023-02-28T15:57:35;5.70;99.90
7004;DHT22;3542;48.812;9.146;2023-02-28T16:00:04;5.60;99.90
7004;DHT22;3542;48.812;9.146;2023-02-28T16:02:32;5.50;99.90
7004;DHT22;3542;48.812;9.146;2023-02-28T16:07:38;5.60;99.90
7004;DHT22;3542;48.812;9.146;2023-02-28T16:10:05;5.50;99.90
7004;DHT22;3542;48.812;9.146;2023-02-28T16:12:33;5.50;99.90
7004;DHT22;3542;48.812;9.146;2023-02-28T16:15:02;5.40;99.90
7004;DHT22;3542;48.812;9.146;2023-02-28T16:17:31;5.30;99.90
7004;DHT22;3542;48.812;9.146;2023-02-28T16:19:57;5.20;99.90
7004;DHT22;3542;48.812;9.146;2023-02-28T16:22:23;5.20;99.90
7004;DHT22;3542;48.812;9.146;2023-02-28T16:24:49;5.20;99.90
7004;DHT22;3542;48.812;9.146;2023-02-28T16:27:31;5.10;99.90
7004;DHT22;3542;48.812;9.146;2023-02-28T16:29:56;5.10;99.90
7004;DHT22;3542;48.812;9.146;2023-02-28T16:32:22;5.00;99.90
7004;DHT22;3542;48.812;9.146;2023-02-28T16:34:48;4.90;99.90
7004;DHT22;3542;48.812;9.146;2023-02-28T16:37:15;4.90;99.90
7004;DHT22;3542;48.812;9.146;2023-02-28T16:39:42;4.80;99.90
7004;DHT22;3542;48.812;9.146;2023-02-28T16:42:18;4.80;99.90
7004;DHT22;3542;48.812;9.146;2023-02-28T16:44:47;4.80;99.90
7004;DHT22;3542;48.812;9.146;2023-02-28T16:47:13;4.70;99.90
7004;DHT22;3542;48.812;9.146;2023-02-28T16:49:38;4.60;99.90
7004;DHT22;3542;48.812;9.146;2023-02-28T16:52:07;4.60;99.90
7004;DHT22;3542;48.812;9.146;2023-02-28T16:54:33;4.50;99.90
7004;DHT22;3542;48.812;9.146;2023-02-28T16:56:59;4.50;99.90
7004;DHT22;3542;48.812;9.146;2023-02-28T16:59:26;4.40;99.90
7004;DHT22;3542;48.812;9.146;2023-02-28T17:01:53;4.30;99.90
7004;DHT22;3542;48.812;9.146;2023-02-28T17:04:19;4.40;99.90
7004;DHT22;3542;48.812;9.146;2023-02-28T17:06:45;4.30;99.90
7004;DHT22;3542;48.812;9.146;2023-02-28T17:09:17;4.20;99.90
7004;DHT22;3542;48.812;9.146;2023-02-28T17:11:43;4.20;99.90
7004;DHT22;3542;48.812;9.146;2023-02-28T17:14:08;4.10;99.90
7004;DHT22;3542;48.812;9.146;2023-02-28T17:16:35;4.10;99.90
7004;DHT22;3542;48.812;9.146;2023-02-28T17:19:06;4.00;99.90
7004;DHT22;3542;48.812;9.146;2023-02-28T17:21:33;3.90;99.90
7004;DHT22;3542;48.812;9.146;2023-02-28T17:23:59;3.90;99.90
7004;DHT22;3542;48.812;9.146;2023-02-28T17:26:26;3.80;99.90
7004;DHT22;3542;48.812;9.146;2023-02-28T17:28:53;3.70;99.90
7004;DHT22;3542;48.812;9.146;2023-02-28T17:31:24;3.60;99.90
7004;DHT22;3542;48.812;9.146;2023-02-28T17:33:51;3.50;99.90
7004;DHT22;3542;48.812;9.146;2023-02-28T17:36:25;3.40;99.90
7004;DHT22;3542;48.812;9.146;2023-02-28T17:38:52;3.30;99.90
7004;DHT22;3542;48.812;9.146;2023-02-28T17:41:18;3.30;99.90
7004;DHT22;3542;48.812;9.146;2023-02-28T17:43:44;3.10;99.90
7004;DHT22;3542;48.812;9.146;2023-02-28T17:46:21;3.10;99.90
7004;DHT22;3542;48.812;9.146;2023-02-28T17:48:52;3.00;99.90
7004;DHT22;3542;48.812;9.146;2023-02-28T17:51:19;3.00;99.90
7004;DHT22;3542;48.812;9.146;2023-02-28T17:53:45;3.00;99.90
7004;DHT22;3542;48.812;9.146;2023-02-28T17:56:17;2.90;99.90
7004;DHT22;3542;48.812;9.146;2023-02-28T17:58:43;2.80;99.90
7004;DHT22;3542;48.812;9.146;2023-02-28T18:01:08;2.80;99.90
7004;DHT22;3542;48.812;9.146;2023-02-28T18:03:34;2.70;99.90
7004;DHT22;3542;48.812;9.146;2023-02-28T18:06:01;2.60;99.90
7004;DHT22;3542;48.812;9.146;2023-02-28T18:08:28;2.60;99.90
7004;DHT22;3542;48.812;9.146;2023-02-28T18:10:53;2.50;99.90
7004;DHT22;3542;48.812;9.146;2023-02-28T18:13:19;2.50;99.90
7004;DHT22;3542;48.812;9.146;2023-02-28T18:15:44;2.40;99.90
7004;DHT22;3542;48.812;9.146;2023-02-28T18:18:10;2.40;99.90
7004;DHT22;3542;48.812;9.146;2023-02-28T18:20:35;2.30;99.90
7004;DHT22;3542;48.812;9.146;2023-02-28T18:23:01;2.30;99.90
7004;DHT22;3542;48.812;9.146;2023-02-28T18:25:27;2.20;99.90
7004;DHT22;3542;48.812;9.146;2023-02-28T18:27:52;2.10;99.90
7004;DHT22;3542;48.812;9.146;2023-02-28T18:30:19;2.10;99.90
7004;DHT22;3542;48.812;9.146;2023-02-28T18:32:45;2.10;99.90
7004;DHT22;3542;48.812;9.146;2023-02-28T18:35:11;2.00;99.90
7004;DHT22;3542;48.812;9.146;2023-02-28T18:37:36;2.00;99.90
7004;DHT22;3542;48.812;9.146;2023-02-28T18:40:03;2.00;99.90
7004;DHT22;3542;48.812;9.146;2023-02-28T18:42:28;2.00;99.90
7004;DHT22;3542;48.812;9.146;2023-02-28T18:44:54;2.00;99.90
7004;DHT22;3542;48.812;9.146;2023-02-28T18:47:20;1.90;99.90
7004;DHT22;3542;48.812;9.146;2023-02-28T18:49:45;1.90;99.90
7004;DHT22;3542;48.812;9.146;2023-02-28T18:52:12;1.80;99.90
7004;DHT22;3542;48.812;9.146;2023-02-28T18:54:37;1.80;99.90
7004;DHT22;3542;48.812;9.146;2023-02-28T18:57:03;1.80;99.90
7004;DHT22;3542;48.812;9.146;2023-02-28T18:59:29;1.70;99.90
7004;DHT22;3542;48.812;9.146;2023-02-28T19:01:54;1.70;99.90
7004;DHT22;3542;48.812;9.146;2023-02-28T19:04:20;1.60;99.90
7004;DHT22;3542;48.812;9.146;2023-02-28T19:06:45;1.60;99.90
7004;DHT22;3542;48.812;9.146;2023-02-28T19:09:11;1.60;99.90
7004;DHT22;3542;48.812;9.146;2023-02-28T19:11:37;1.60;99.90
7004;DHT22;3542;48.812;9.146;2023-02-28T19:14:02;1.60;99.90
7004;DHT22;3542;48.812;9.146;2023-02-28T19:16:28;1.60;99.90
7004;DHT22;3542;48.812;9.146;2023-02-28T19:18:54;1.50;99.90
7004;DHT22;3542;48.812;9.146;2023-02-28T19:21:21;1.50;99.90
7004;DHT22;3542;48.812;9.146;2023-02-28T19:23:47;1.50;99.90
7004;DHT22;3542;48.812;9.146;2023-02-28T19:26:18;1.40;99.90
7004;DHT22;3542;48.812;9.146;2023-02-28T19:28:44;1.40;99.90
7004;DHT22;3542;48.812;9.146;2023-02-28T19:31:18;1.30;99.90
7004;DHT22;3542;48.812;9.146;2023-02-28T19:33:44;1.20;99.90
7004;DHT22;3542;48.812;9.146;2023-02-28T19:36:10;1.20;99.90
7004;DHT22;3542;48.812;9.146;2023-02-28T19:38:37;1.10;99.90